Harmony, Minnesota
Current Conditions -  °F | °C
As of 6:15 AM on Saturday 25 Oct 2014 (Local Time) from KFKA Reporting Station
Clear Clear  
Wind Chill: 43°   Ceiling: Unl
Heat Index: 47°   Visibility: 10mi
Dew Point: 41°   Wind: 9mph
Humidity: 80%   Direction: 310°NW
Pressure: 29.99"   Gusts: NA
Location:  43.56°N, 92.01°W
Report Text: KFKA 251115Z AUTO 31008KT 10SM CLR 08/05 A2999 RMK AO2 T00830050
Loading
Personal Weather Stations






























Interactive Weather Map
Tropical Storm Tracking
New forecast layout! Learn more

10-Day Weather Forecast

Advertisements
Track Severe Weather on mobile